^^
Your Local Weather - Clay, NY Station Historical Data
Daily Summary for February 18, 2018 Units:  Both    English   Metric
« Previous Day
Next Day »
Daily Weekly Monthly Yearly Custom
  High: Low: Average:
Temperature: 37.9 °F /  3.3 °C 25.8 °F /  -3.4 °C 31.1 °F /  -0.5 °C
Dew Point: 28.5 °F /  -1.9 °C 20.6 °F /  -6.3 °C 24.6 °F /  -4.1 °C
Humidity: 91% 55% 78%
Wind Speed: 4.0mph /  6.4km/h - 1.7mph /  2.7km/h
Wind Gust: 10.0mph /  16.1km/h - -
Wind- - WSW
Pressure: 30.42 in /  1030 hPa 29.93 in /  1013.4 hPa -
Precipitation: 0.07 in /  1.78 mm    
Historical Graphs
 
 
Tabular Data for February 18, 2018
Time Temperature Dew Point Pressure Wind Wind Speed Wind Gust Humidity Rainfall Rate (Hourly) solar
00:03 29.5 °F /  -1.4 °C 26.7 °F /  -2.9 °C 29.94in /  1013.8hPa Calm     89% 0.00in /  0mm 0 W/m2
00:09 29.5 °F /  -1.4 °C 26.7 °F /  -2.9 °C 29.93in /  1013.4hPa Calm     89% 0.00in /  0mm 0 W/m2
00:22 29.6 °F /  -1.3 °C 26.8 °F /  -2.9 °C 29.93in /  1013.4hPa Calm     89% 0.00in /  0mm 0 W/m2
00:28 29.6 °F /  -1.3 °C 26.8 °F /  -2.9 °C 29.93in /  1013.4hPa Calm     89% 0.00in /  0mm 0 W/m2
00:33 29.6 °F /  -1.3 °C 26.8 °F /  -2.9 °C 29.93in /  1013.4hPa Calm     89% 0.00in /  0mm 0 W/m2
00:39 29.6 °F /  -1.3 °C 26.8 °F /  -2.9 °C 29.93in /  1013.4hPa Calm     89% 0.00in /  0mm 0 W/m2
00:45 29.6 °F /  -1.3 °C 27.0 °F /  -2.8 °C 29.93in /  1013.4hPa Calm     90% 0.00in /  0mm 0 W/m2
00:52 29.6 °F /  -1.3 °C 27.0 °F /  -2.8 °C 29.93in /  1013.4hPa Calm     90% 0.00in /  0mm 0 W/m2
00:58 29.6 °F /  -1.3 °C 27.0 °F /  -2.8 °C 29.93in /  1013.4hPa Calm     90% 0.00in /  0mm 0 W/m2
01:04 29.6 °F /  -1.3 °C 27.0 °F /  -2.8 °C 29.93in /  1013.4hPa Calm     90% 0.00in /  0mm 0 W/m2
01:10 29.7 °F /  -1.3 °C 27.1 °F /  -2.7 °C 29.93in /  1013.4hPa Calm     90% 0.00in /  0mm 0 W/m2
01:16 29.7 °F /  -1.3 °C 27.1 °F /  -2.7 °C 29.93in /  1013.4hPa Calm   1.0mph /  1.6km/h 90% 0.00in /  0mm 0 W/m2
01:22 29.7 °F /  -1.3 °C 27.1 °F /  -2.7 °C 29.93in /  1013.4hPa Calm     90% 0.00in /  0mm 0 W/m2
01:28 29.8 °F /  -1.2 °C 27.2 °F /  -2.7 °C 29.94in /  1013.8hPa SW 1.0mph /  1.6km/h 1.0mph /  1.6km/h 90% 0.00in /  0mm 0 W/m2
01:34 29.8 °F /  -1.2 °C 27.2 °F /  -2.7 °C 29.95in /  1014.1hPa West 1.0mph /  1.6km/h 1.0mph /  1.6km/h 90% 0.00in /  0mm 0 W/m2
01:40 29.8 °F /  -1.2 °C 27.2 °F /  -2.7 °C 29.95in /  1014.1hPa Calm   1.0mph /  1.6km/h 90% 0.00in /  0mm 0 W/m2
01:46 29.8 °F /  -1.2 °C 27.2 °F /  -2.7 °C 29.95in /  1014.1hPa WSW 1.0mph /  1.6km/h 1.0mph /  1.6km/h 90% 0.00in /  0mm 0 W/m2
01:52 29.8 °F /  -1.2 °C 27.5 °F /  -2.5 °C 29.95in /  1014.1hPa West 1.0mph /  1.6km/h 2.0mph /  3.2km/h 91% 0.00in /  0mm 0 W/m2
01:58 29.8 °F /  -1.2 °C 27.5 °F /  -2.5 °C 29.96in /  1014.4hPa West 1.0mph /  1.6km/h 3.0mph /  4.8km/h 91% 0.00in /  0mm 0 W/m2
02:04 29.7 °F /  -1.3 °C 27.4 °F /  -2.6 °C 29.96in /  1014.4hPa WSW 1.0mph /  1.6km/h 3.0mph /  4.8km/h 91% 0.00in /  0mm 0 W/m2
02:16 29.6 °F /  -1.3 °C 27.3 °F /  -2.6 °C 29.98in /  1015.1hPa WNW 3.0mph /  4.8km/h 3.0mph /  4.8km/h 91% 0.00in /  0mm 0 W/m2
02:22 29.4 °F /  -1.4 °C 27.1 °F /  -2.7 °C 29.98in /  1015.1hPa WNW 3.0mph /  4.8km/h 4.0mph /  6.4km/h 91% 0.00in /  0mm 0 W/m2
02:28 29.2 °F /  -1.6 °C 26.9 °F /  -2.8 °C 29.98in /  1015.1hPa West 3.0mph /  4.8km/h 4.0mph /  6.4km/h 91% 0.00in /  0mm 0 W/m2
02:34 28.9 °F /  -1.7 °C 26.6 °F /  -3 °C 29.99in /  1015.5hPa NW 2.0mph /  3.2km/h 5.0mph /  8km/h 91% 0.00in /  0mm 0 W/m2
02:40 28.9 °F /  -1.7 °C 26.6 °F /  -3 °C 29.99in /  1015.5hPa NW 2.0mph /  3.2km/h 2.0mph /  3.2km/h 91% 0.00in /  0mm 0 W/m2
02:46 28.9 °F /  -1.7 °C 26.6 °F /  -3 °C 30.00in /  1015.8hPa WNW 2.0mph /  3.2km/h 2.0mph /  3.2km/h 91% 0.00in /  0mm 0 W/m2
02:52 28.8 °F /  -1.8 °C 26.5 °F /  -3.1 °C 30.00in /  1015.8hPa NW 2.0mph /  3.2km/h 3.0mph /  4.8km/h 91% 0.00in /  0mm 0 W/m2
02:58 28.7 °F /  -1.8 °C 26.4 °F /  -3.1 °C 30.00in /  1015.8hPa West 2.0mph /  3.2km/h 3.0mph /  4.8km/h 91% 0.00in /  0mm 0 W/m2
03:04 28.7 °F /  -1.8 °C 26.4 °F /  -3.1 °C 30.00in /  1015.8hPa West 2.0mph /  3.2km/h 3.0mph /  4.8km/h 91% 0.00in /  0mm 0 W/m2
03:10 28.6 °F /  -1.9 °C 26.3 °F /  -3.2 °C 30.00in /  1015.8hPa West 1.0mph /  1.6km/h 1.0mph /  1.6km/h 91% 0.00in /  0mm 0 W/m2
03:16 28.5 °F /  -1.9 °C 26.2 °F /  -3.2 °C 30.01in /  1016.1hPa WSW 1.0mph /  1.6km/h 2.0mph /  3.2km/h 91% 0.00in /  0mm 0 W/m2
03:22 28.4 °F /  -2 °C 26.1 °F /  -3.3 °C 30.01in /  1016.1hPa WSW 2.0mph /  3.2km/h 2.0mph /  3.2km/h 91% 0.00in /  0mm 0 W/m2
03:28 28.3 °F /  -2.1 °C 26.0 °F /  -3.3 °C 30.01in /  1016.1hPa NW 2.0mph /  3.2km/h 5.0mph /  8km/h 91% 0.00in /  0mm 0 W/m2
03:34 28.3 °F /  -2.1 °C 26.0 °F /  -3.3 °C 30.01in /  1016.1hPa WNW 2.0mph /  3.2km/h 2.0mph /  3.2km/h 91% 0.00in /  0mm 0 W/m2
03:42 28.2 °F /  -2.1 °C 25.9 °F /  -3.4 °C 30.02in /  1016.5hPa WNW 1.0mph /  1.6km/h 1.0mph /  1.6km/h 91% 0.00in /  0mm 0 W/m2
03:48 28.1 °F /  -2.2 °C 25.8 °F /  -3.4 °C 30.01in /  1016.1hPa WNW 1.0mph /  1.6km/h 1.0mph /  1.6km/h 91% 0.00in /  0mm 0 W/m2
03:54 28.1 °F /  -2.2 °C 25.8 °F /  -3.4 °C 30.02in /  1016.5hPa West 1.0mph /  1.6km/h 2.0mph /  3.2km/h 91% 0.00in /  0mm 0 W/m2
04:00 28.2 °F /  -2.1 °C 25.6 °F /  -3.6 °C 30.03in /  1016.8hPa West 1.0mph /  1.6km/h 2.0mph /  3.2km/h 90% 0.00in /  0mm 0 W/m2
04:06 28.2 °F /  -2.1 °C 25.6 °F /  -3.6 °C 30.04in /  1017.2hPa West 1.0mph /  1.6km/h 2.0mph /  3.2km/h 90% 0.00in /  0mm 0 W/m2
04:18 28.2 °F /  -2.1 °C 25.6 °F /  -3.6 °C 30.05in /  1017.5hPa West 1.0mph /  1.6km/h 3.0mph /  4.8km/h 90% 0.00in /  0mm 0 W/m2
04:24 28.2 °F /  -2.1 °C 25.6 °F /  -3.6 °C 30.06in /  1017.8hPa West 1.0mph /  1.6km/h 1.0mph /  1.6km/h 90% 0.00in /  0mm 0 W/m2
04:30 28.2 °F /  -2.1 °C 25.6 °F /  -3.6 °C 30.06in /  1017.8hPa West 1.0mph /  1.6km/h 2.0mph /  3.2km/h 90% 0.00in /  0mm 0 W/m2
04:36 28.3 °F /  -2.1 °C 25.7 °F /  -3.5 °C 30.06in /  1017.8hPa WSW 1.0mph /  1.6km/h 2.0mph /  3.2km/h 90% 0.00in /  0mm 0 W/m2
04:42 28.3 °F /  -2.1 °C 25.7 °F /  -3.5 °C 30.06in /  1017.8hPa WSW 1.0mph /  1.6km/h 3.0mph /  4.8km/h 90% 0.00in /  0mm 0 W/m2
04:48 28.3 °F /  -2.1 °C 25.7 °F /  -3.5 °C 30.07in /  1018.2hPa WSW 1.0mph /  1.6km/h 3.0mph /  4.8km/h 90% 0.00in /  0mm 0 W/m2
04:54 28.4 °F /  -2 °C 25.8 °F /  -3.4 °C 30.07in /  1018.2hPa WSW 1.0mph /  1.6km/h 4.0mph /  6.4km/h 90% 0.00in /  0mm 0 W/m2
05:00 28.4 °F /  -2 °C 25.8 °F /  -3.4 °C 30.08in /  1018.5hPa WSW 1.0mph /  1.6km/h 2.0mph /  3.2km/h 90% 0.00in /  0mm 0 W/m2
05:06 28.3 °F /  -2.1 °C 25.5 °F /  -3.6 °C 30.09in /  1018.8hPa WSW 1.0mph /  1.6km/h 2.0mph /  3.2km/h 89% 0.00in /  0mm 0 W/m2
05:12 28.2 °F /  -2.1 °C 25.4 °F /  -3.7 °C 30.09in /  1018.8hPa WSW 1.0mph /  1.6km/h 1.0mph /  1.6km/h 89% 0.00in /  0mm 0 W/m2
05:18 28.2 °F /  -2.1 °C 25.4 °F /  -3.7 °C 30.09in /  1018.8hPa WSW 2.0mph /  3.2km/h 3.0mph /  4.8km/h 89% 0.00in /  0mm 0 W/m2
05:24 28.1 °F /  -2.2 °C 25.3 °F /  -3.7 °C 30.10in /  1019.2hPa WSW 2.0mph /  3.2km/h 2.0mph /  3.2km/h 89% 0.00in /  0mm 0 W/m2
05:30 27.9 °F /  -2.3 °C 25.1 °F /  -3.8 °C 30.10in /  1019.2hPa WSW 1.0mph /  1.6km/h 1.0mph /  1.6km/h 89% 0.00in /  0mm 0 W/m2
05:36 27.6 °F /  -2.4 °C 24.8 °F /  -4 °C 30.11in /  1019.5hPa WSW 1.0mph /  1.6km/h 3.0mph /  4.8km/h 89% 0.00in /  0mm 0 W/m2
05:42 27.6 °F /  -2.4 °C 24.8 °F /  -4 °C 30.12in /  1019.9hPa WSW 1.0mph /  1.6km/h 1.0mph /  1.6km/h 89% 0.00in /  0mm 0 W/m2
05:48 27.7 °F /  -2.4 °C 24.9 °F /  -3.9 °C 30.12in /  1019.9hPa WSW 1.0mph /  1.6km/h 2.0mph /  3.2km/h 89% 0.00in /  0mm 0 W/m2
05:54 28.0 °F /  -2.2 °C 25.2 °F /  -3.8 °C 30.12in /  1019.9hPa SW 2.0mph /  3.2km/h 3.0mph /  4.8km/h 89% 0.00in /  0mm 0 W/m2
06:00 28.1 °F /  -2.2 °C 25.3 °F /  -3.7 °C 30.12in /  1019.9hPa WSW 2.0mph /  3.2km/h 2.0mph /  3.2km/h 89% 0.00in /  0mm 0 W/m2
06:06 28.2 °F /  -2.1 °C 25.4 °F /  -3.7 °C 30.13in /  1020.2hPa WSW 2.0mph /  3.2km/h 7.0mph /  11.3km/h 89% 0.00in /  0mm 0 W/m2
06:12 28.5 °F /  -1.9 °C 25.4 °F /  -3.7 °C 30.13in /  1020.2hPa West 3.0mph /  4.8km/h 6.0mph /  9.7km/h 88% 0.00in /  0mm 0 W/m2
06:18 28.7 °F /  -1.8 °C 25.6 °F /  -3.6 °C 30.14in /  1020.5hPa WSW 3.0mph /  4.8km/h 6.0mph /  9.7km/h 88% 0.00in /  0mm 0 W/m2
06:24 28.7 °F /  -1.8 °C 25.6 °F /  -3.6 °C 30.14in /  1020.5hPa WSW 3.0mph /  4.8km/h 3.0mph /  4.8km/h 88% 0.00in /  0mm 0 W/m2
06:30 28.7 °F /  -1.8 °C 25.6 °F /  -3.6 °C 30.15in /  1020.9hPa West 2.0mph /  3.2km/h 2.0mph /  3.2km/h 88% 0.00in /  0mm 0 W/m2
06:36 28.7 °F /  -1.8 °C 25.6 °F /  -3.6 °C 30.16in /  1021.2hPa SW 2.0mph /  3.2km/h 3.0mph /  4.8km/h 88% 0.00in /  0mm 0 W/m2
06:42 28.8 °F /  -1.8 °C 25.7 °F /  -3.5 °C 30.16in /  1021.2hPa SW 2.0mph /  3.2km/h 4.0mph /  6.4km/h 88% 0.00in /  0mm 0 W/m2
06:48 28.8 °F /  -1.8 °C 25.7 °F /  -3.5 °C 30.15in /  1020.9hPa SW 2.0mph /  3.2km/h 4.0mph /  6.4km/h 88% 0.00in /  0mm 0 W/m2
06:54 28.8 °F /  -1.8 °C 25.4 °F /  -3.7 °C 30.15in /  1020.9hPa WSW 2.0mph /  3.2km/h 2.0mph /  3.2km/h 87% 0.00in /  0mm 0 W/m2
07:00 28.7 °F /  -1.8 °C 25.3 °F /  -3.7 °C 30.16in /  1021.2hPa WSW 1.0mph /  1.6km/h 5.0mph /  8km/h 87% 0.00in /  0mm 0 W/m2
07:06 28.8 °F /  -1.8 °C 25.4 °F /  -3.7 °C 30.17in /  1021.6hPa WSW 1.0mph /  1.6km/h 5.0mph /  8km/h 87% 0.00in /  0mm 0 W/m2
07:12 28.9 °F /  -1.7 °C 25.5 °F /  -3.6 °C 30.18in /  1021.9hPa SSW 2.0mph /  3.2km/h 2.0mph /  3.2km/h 87% 0.00in /  0mm 0 W/m2
07:18 28.9 °F /  -1.7 °C 25.5 °F /  -3.6 °C 30.20in /  1022.6hPa SW 3.0mph /  4.8km/h 4.0mph /  6.4km/h 87% 0.00in /  0mm 0 W/m2
07:24 29.0 °F /  -1.7 °C 25.6 °F /  -3.6 °C 30.20in /  1022.6hPa West 3.0mph /  4.8km/h 5.0mph /  8km/h 87% 0.00in /  0mm 0 W/m2
07:30 29.0 °F /  -1.7 °C 25.6 °F /  -3.6 °C 30.21in /  1022.9hPa West 3.0mph /  4.8km/h 3.0mph /  4.8km/h 87% 0.00in /  0mm 0 W/m2
07:36 29.0 °F /  -1.7 °C 25.6 °F /  -3.6 °C 30.21in /  1022.9hPa WSW 3.0mph /  4.8km/h 4.0mph /  6.4km/h 87% 0.00in /  0mm 5 W/m2
07:42 29.0 °F /  -1.7 °C 25.6 °F /  -3.6 °C 30.22in /  1023.2hPa WSW 3.0mph /  4.8km/h 3.0mph /  4.8km/h 87% 0.00in /  0mm 9 W/m2
07:48 29.1 °F /  -1.6 °C 25.4 °F /  -3.7 °C 30.22in /  1023.2hPa SSW 3.0mph /  4.8km/h 4.0mph /  6.4km/h 86% 0.00in /  0mm 11 W/m2
07:54 29.1 °F /  -1.6 °C 25.4 °F /  -3.7 °C 30.23in /  1023.6hPa WSW 3.0mph /  4.8km/h 3.0mph /  4.8km/h 86% 0.00in /  0mm 9 W/m2
08:00 29.2 °F /  -1.6 °C 25.5 °F /  -3.6 °C 30.23in /  1023.6hPa West 3.0mph /  4.8km/h 3.0mph /  4.8km/h 86% 0.00in /  0mm 7 W/m2
08:06 29.2 °F /  -1.6 °C 25.5 °F /  -3.6 °C 30.23in /  1023.6hPa WSW 2.0mph /  3.2km/h 4.0mph /  6.4km/h 86% 0.00in /  0mm 5 W/m2
08:12 29.3 °F /  -1.5 °C 25.6 °F /  -3.6 °C 30.24in /  1023.9hPa WNW 3.0mph /  4.8km/h 3.0mph /  4.8km/h 86% 0.00in /  0mm 9 W/m2
08:18 29.4 °F /  -1.4 °C 25.7 °F /  -3.5 °C 30.24in /  1023.9hPa WSW 3.0mph /  4.8km/h 3.0mph /  4.8km/h 86% 0.00in /  0mm 11 W/m2
08:24 29.5 °F /  -1.4 °C 25.8 °F /  -3.4 °C 30.26in /  1024.6hPa WSW 3.0mph /  4.8km/h 4.0mph /  6.4km/h 86% 0.00in /  0mm 12 W/m2
08:30 29.6 °F /  -1.3 °C 25.9 °F /  -3.4 °C 30.26in /  1024.6hPa WSW 2.0mph /  3.2km/h 2.0mph /  3.2km/h 86% 0.00in /  0mm 19 W/m2
08:36 29.8 °F /  -1.2 °C 25.8 °F /  -3.4 °C 30.27in /  1024.9hPa West 3.0mph /  4.8km/h 6.0mph /  9.7km/h 85% 0.00in /  0mm 30 W/m2
08:42 29.9 °F /  -1.2 °C 25.9 °F /  -3.4 °C 30.27in /  1024.9hPa WSW 3.0mph /  4.8km/h 4.0mph /  6.4km/h 85% 0.00in /  0mm 47 W/m2
08:48 30.1 °F /  -1.1 °C 26.1 °F /  -3.3 °C 30.27in /  1024.9hPa NW 3.0mph /  4.8km/h 4.0mph /  6.4km/h 85% 0.00in /  0mm 65 W/m2
08:54 30.3 °F /  -0.9 °C 26.3 °F /  -3.2 °C 30.26in /  1024.6hPa WNW 4.0mph /  6.4km/h 6.0mph /  9.7km/h 85% 0.00in /  0mm 47 W/m2
09:00 30.5 °F /  -0.8 °C 26.2 °F /  -3.2 °C 30.26in /  1024.6hPa WNW 3.0mph /  4.8km/h 3.0mph /  4.8km/h 84% 0.00in /  0mm 58 W/m2
09:06 30.7 °F /  -0.7 °C 26.4 °F /  -3.1 °C 30.26in /  1024.6hPa WNW 2.0mph /  3.2km/h 3.0mph /  4.8km/h 84% 0.00in /  0mm 67 W/m2
09:12 31.0 °F /  -0.6 °C 26.4 °F /  -3.1 °C 30.26in /  1024.6hPa NW 2.0mph /  3.2km/h 3.0mph /  4.8km/h 83% 0.00in /  0mm 107 W/m2
09:18 31.2 °F /  -0.4 °C 26.3 °F /  -3.2 °C 30.26in /  1024.6hPa NW 2.0mph /  3.2km/h 3.0mph /  4.8km/h 82% 0.00in /  0mm 74 W/m2
09:24 31.2 °F /  -0.4 °C 26.3 °F /  -3.2 °C 30.26in /  1024.6hPa WSW 3.0mph /  4.8km/h 3.0mph /  4.8km/h 82% 0.00in /  0mm 58 W/m2
09:30 31.2 °F /  -0.4 °C 26.3 °F /  -3.2 °C 30.26in /  1024.6hPa West 3.0mph /  4.8km/h 3.0mph /  4.8km/h 82% 0.00in /  0mm 54 W/m2
09:36 31.2 °F /  -0.4 °C 26.3 °F /  -3.2 °C 30.26in /  1024.6hPa West 2.0mph /  3.2km/h 3.0mph /  4.8km/h 82% 0.00in /  0mm 54 W/m2
09:42 31.3 °F /  -0.4 °C 26.4 °F /  -3.1 °C 30.27in /  1024.9hPa WSW 1.0mph /  1.6km/h 2.0mph /  3.2km/h 82% 0.00in /  0mm 54 W/m2
09:48 31.4 °F /  -0.3 °C 26.5 °F /  -3.1 °C 30.27in /  1024.9hPa WNW 1.0mph /  1.6km/h 3.0mph /  4.8km/h 82% 0.00in /  0mm 58 W/m2
09:54 31.4 °F /  -0.3 °C 26.2 °F /  -3.2 °C 30.27in /  1024.9hPa WSW 2.0mph /  3.2km/h 4.0mph /  6.4km/h 81% 0.00in /  0mm 60 W/m2
10:00 31.4 °F /  -0.3 °C 26.2 °F /  -3.2 °C 30.27in /  1024.9hPa WNW 2.0mph /  3.2km/h 3.0mph /  4.8km/h 81% 0.00in /  0mm 49 W/m2
10:06 31.4 °F /  -0.3 °C 26.5 °F /  -3.1 °C 30.28in /  1025.3hPa West 2.0mph /  3.2km/h 4.0mph /  6.4km/h 82% 0.00in /  0mm 46 W/m2
10:12 31.4 °F /  -0.3 °C 26.2 °F /  -3.2 °C 30.28in /  1025.3hPa WNW 3.0mph /  4.8km/h 4.0mph /  6.4km/h 81% 0.00in /  0mm 47 W/m2
10:18 31.4 °F /  -0.3 °C 26.5 °F /  -3.1 °C 30.28in /  1025.3hPa West 3.0mph /  4.8km/h 4.0mph /  6.4km/h 82% 0.00in /  0mm 56 W/m2
10:24 31.5 °F /  -0.3 °C 26.6 °F /  -3 °C 30.28in /  1025.3hPa WSW 3.0mph /  4.8km/h 3.0mph /  4.8km/h 82% 0.00in /  0mm 72 W/m2
10:30 31.6 °F /  -0.2 °C 26.7 °F /  -2.9 °C 30.28in /  1025.3hPa WNW 3.0mph /  4.8km/h 3.0mph /  4.8km/h 82% 0.00in /  0mm 74 W/m2
10:36 31.8 °F /  -0.1 °C 26.6 °F /  -3 °C 30.28in /  1025.3hPa WNW 3.0mph /  4.8km/h 4.0mph /  6.4km/h 81% 0.00in /  0mm 72 W/m2
10:42 32.0 °F /  0 °C 26.8 °F /  -2.9 °C 30.28in /  1025.3hPa West 2.0mph /  3.2km/h 2.0mph /  3.2km/h 81% 0.00in /  0mm 70 W/m2
10:48 32.1 °F /  0.1 °C 26.6 °F /  -3 °C 30.28in /  1025.3hPa WNW 2.0mph /  3.2km/h 3.0mph /  4.8km/h 80% 0.00in /  0mm 60 W/m2
10:54 32.2 °F /  0.1 °C 26.7 °F /  -2.9 °C 30.28in /  1025.3hPa WNW 2.0mph /  3.2km/h 2.0mph /  3.2km/h 80% 0.00in /  0mm 51 W/m2
11:00 32.2 °F /  0.1 °C 26.4 °F /  -3.1 °C 30.28in /  1025.3hPa West 2.0mph /  3.2km/h 2.0mph /  3.2km/h 79% 0.00in /  0mm 58 W/m2
11:06 32.3 °F /  0.2 °C 26.5 °F /  -3.1 °C 30.28in /  1025.3hPa WNW 3.0mph /  4.8km/h 5.0mph /  8km/h 79% 0.00in /  0mm 56 W/m2
11:12 32.3 °F /  0.2 °C 26.5 °F /  -3.1 °C 30.29in /  1025.6hPa NW 3.0mph /  4.8km/h 4.0mph /  6.4km/h 79% 0.00in /  0mm 60 W/m2
11:18 32.3 °F /  0.2 °C 26.5 °F /  -3.1 °C 30.29in /  1025.6hPa WNW 3.0mph /  4.8km/h 5.0mph /  8km/h 79% 0.00in /  0mm 65 W/m2
11:24 32.4 °F /  0.2 °C 26.6 °F /  -3 °C 30.29in /  1025.6hPa West 3.0mph /  4.8km/h 4.0mph /  6.4km/h 79% 0.00in /  0mm 84 W/m2
11:30 32.6 °F /  0.3 °C 26.8 °F /  -2.9 °C 30.29in /  1025.6hPa WNW 3.0mph /  4.8km/h 3.0mph /  4.8km/h 79% 0.00in /  0mm 84 W/m2
11:36 32.7 °F /  0.4 °C 26.9 °F /  -2.8 °C 30.30in /  1026hPa WNW 2.0mph /  3.2km/h 3.0mph /  4.8km/h 79% 0.00in /  0mm 83 W/m2
11:42 32.9 °F /  0.5 °C 26.8 °F /  -2.9 °C 30.31in /  1026.3hPa WNW 1.0mph /  1.6km/h 2.0mph /  3.2km/h 78% 0.00in /  0mm 90 W/m2
11:48 33.0 °F /  0.6 °C 26.9 °F /  -2.8 °C 30.31in /  1026.3hPa WNW 2.0mph /  3.2km/h 4.0mph /  6.4km/h 78% 0.00in /  0mm 121 W/m2
11:54 33.4 °F /  0.8 °C 27.0 °F /  -2.8 °C 30.31in /  1026.3hPa WSW 3.0mph /  4.8km/h 3.0mph /  4.8km/h 77% 0.00in /  0mm 204 W/m2
12:00 33.9 °F /  1.1 °C 26.8 °F /  -2.9 °C 30.31in /  1026.3hPa WNW 2.0mph /  3.2km/h 2.0mph /  3.2km/h 75% 0.04in /  1.02mm 243 W/m2
12:06 34.0 °F /  1.1 °C 26.9 °F /  -2.8 °C 30.31in /  1026.3hPa WSW 2.0mph /  3.2km/h 4.0mph /  6.4km/h 75% 0.04in /  1.02mm 225 W/m2
12:12 33.9 °F /  1.1 °C 26.8 °F /  -2.9 °C 30.32in /  1026.6hPa West 3.0mph /  4.8km/h 6.0mph /  9.7km/h 75% 0.04in /  1.02mm 243 W/m2
12:18 33.9 °F /  1.1 °C 26.8 °F /  -2.9 °C 30.32in /  1026.6hPa WSW 4.0mph /  6.4km/h 6.0mph /  9.7km/h 75% 0.00in /  0mm 230 W/m2
12:24 34.0 °F /  1.1 °C 26.6 °F /  -3 °C 30.32in /  1026.6hPa WSW 4.0mph /  6.4km/h 5.0mph /  8km/h 74% 0.00in /  0mm 246 W/m2
12:30 34.1 °F /  1.2 °C 26.7 °F /  -2.9 °C 30.32in /  1026.6hPa WSW 3.0mph /  4.8km/h 3.0mph /  4.8km/h 74% 0.00in /  0mm 204 W/m2
12:36 34.0 °F /  1.1 °C 26.6 °F /  -3 °C 30.32in /  1026.6hPa WSW 3.0mph /  4.8km/h 4.0mph /  6.4km/h 74% 0.00in /  0mm 179 W/m2
12:42 36.1 °F /  2.3 °C 27.9 °F /  -2.3 °C 30.31in /  1026.3hPa WSW 3.0mph /  4.8km/h 6.0mph /  9.7km/h 72% 0.00in /  0mm 719 W/m2
12:48 36.7 °F /  2.6 °C 28.5 °F /  -1.9 °C 30.31in /  1026.3hPa WSW 2.0mph /  3.2km/h 6.0mph /  9.7km/h 72% 0.00in /  0mm 599 W/m2
12:54 36.3 °F /  2.4 °C 27.4 °F /  -2.6 °C 30.31in /  1026.3hPa WSW 3.0mph /  4.8km/h 7.0mph /  11.3km/h 70% 0.00in /  0mm 429 W/m2
13:00 35.5 °F /  1.9 °C 27.0 °F /  -2.8 °C 30.31in /  1026.3hPa WSW 4.0mph /  6.4km/h 4.0mph /  6.4km/h 71% 0.00in /  0mm 345 W/m2
13:06 35.3 °F /  1.8 °C 26.8 °F /  -2.9 °C 30.31in /  1026.3hPa SW 3.0mph /  4.8km/h 5.0mph /  8km/h 71% 0.00in /  0mm 192 W/m2
13:12 36.4 °F /  2.4 °C 27.9 °F /  -2.3 °C 30.31in /  1026.3hPa WSW 3.0mph /  4.8km/h 6.0mph /  9.7km/h 71% 0.00in /  0mm 610 W/m2
13:18 37.4 °F /  3 °C 27.8 °F /  -2.3 °C 30.31in /  1026.3hPa SW 3.0mph /  4.8km/h 6.0mph /  9.7km/h 68% 0.00in /  0mm 599 W/m2
13:24 36.5 °F /  2.5 °C 26.6 °F /  -3 °C 30.31in /  1026.3hPa West 4.0mph /  6.4km/h 5.0mph /  8km/h 67% 0.00in /  0mm 306 W/m2
13:30 36.4 °F /  2.4 °C 26.8 °F /  -2.9 °C 30.31in /  1026.3hPa WSW 4.0mph /  6.4km/h 9.0mph /  14.5km/h 68% 0.00in /  0mm 450 W/m2
13:36 37.0 °F /  2.8 °C 26.3 °F /  -3.2 °C 30.31in /  1026.3hPa West 4.0mph /  6.4km/h 10.0mph /  16.1km/h 65% 0.00in /  0mm 320 W/m2
13:42 36.5 °F /  2.5 °C 25.5 °F /  -3.6 °C 30.31in /  1026.3hPa NW 4.0mph /  6.4km/h 6.0mph /  9.7km/h 64% 0.00in /  0mm 327 W/m2
13:48 36.5 °F /  2.5 °C 25.5 °F /  -3.6 °C 30.31in /  1026.3hPa NW 4.0mph /  6.4km/h 6.0mph /  9.7km/h 64% 0.00in /  0mm 352 W/m2
13:54 36.6 °F /  2.6 °C 25.6 °F /  -3.6 °C 30.32in /  1026.6hPa WNW 4.0mph /  6.4km/h 5.0mph /  8km/h 64% 0.00in /  0mm 236 W/m2
14:00 36.4 °F /  2.4 °C 25.4 °F /  -3.7 °C 30.32in /  1026.6hPa WNW 3.0mph /  4.8km/h 3.0mph /  4.8km/h 64% 0.00in /  0mm 178 W/m2
14:06 36.4 °F /  2.4 °C 25.7 °F /  -3.5 °C 30.32in /  1026.6hPa WNW 2.0mph /  3.2km/h 3.0mph /  4.8km/h 65% 0.00in /  0mm 250 W/m2
14:12 36.8 °F /  2.7 °C 25.8 °F /  -3.4 °C 30.32in /  1026.6hPa WSW 3.0mph /  4.8km/h 3.0mph /  4.8km/h 64% 0.00in /  0mm 357 W/m2
14:18 37.0 °F /  2.8 °C 25.9 °F /  -3.4 °C 30.32in /  1026.6hPa West 3.0mph /  4.8km/h 4.0mph /  6.4km/h 64% 0.00in /  0mm 243 W/m2
14:24 37.0 °F /  2.8 °C 25.6 °F /  -3.6 °C 30.33in /  1027hPa WNW 3.0mph /  4.8km/h 4.0mph /  6.4km/h 63% 0.00in /  0mm 302 W/m2
14:30 37.3 °F /  2.9 °C 24.7 °F /  -4.1 °C 30.32in /  1026.6hPa WSW 3.0mph /  4.8km/h 5.0mph /  8km/h 60% 0.00in /  0mm 598 W/m2
14:36 37.4 °F /  3 °C 23.5 °F /  -4.7 °C 30.32in /  1026.6hPa SW 4.0mph /  6.4km/h 5.0mph /  8km/h 57% 0.00in /  0mm 253 W/m2
14:42 37.2 °F /  2.9 °C 23.8 °F /  -4.6 °C 30.32in /  1026.6hPa WNW 3.0mph /  4.8km/h 5.0mph /  8km/h 58% 0.00in /  0mm 174 W/m2
14:48 37.2 °F /  2.9 °C 22.9 °F /  -5.1 °C 30.32in /  1026.6hPa NW 3.0mph /  4.8km/h 5.0mph /  8km/h 56% 0.00in /  0mm 165 W/m2
14:54 36.9 °F /  2.7 °C 23.1 °F /  -4.9 °C 30.33in /  1027hPa WNW 3.0mph /  4.8km/h 5.0mph /  8km/h 57% 0.00in /  0mm 155 W/m2
15:00 36.8 °F /  2.7 °C 23.8 °F /  -4.6 °C 30.33in /  1027hPa SW 3.0mph /  4.8km/h 3.0mph /  4.8km/h 59% 0.00in /  0mm 155 W/m2
15:06 36.9 °F /  2.7 °C 23.5 °F /  -4.7 °C 30.33in /  1027hPa WSW 2.0mph /  3.2km/h 5.0mph /  8km/h 58% 0.00in /  0mm 149 W/m2
15:12 36.7 °F /  2.6 °C 23.7 °F /  -4.6 °C 30.33in /  1027hPa SW 3.0mph /  4.8km/h 5.0mph /  8km/h 59% 0.00in /  0mm 144 W/m2
15:18 36.6 °F /  2.6 °C 22.4 °F /  -5.3 °C 30.33in /  1027hPa SW 3.0mph /  4.8km/h 5.0mph /  8km/h 56% 0.00in /  0mm 148 W/m2
15:24 36.6 °F /  2.6 °C 23.2 °F /  -4.9 °C 30.33in /  1027hPa WNW 3.0mph /  4.8km/h 3.0mph /  4.8km/h 58% 0.00in /  0mm 127 W/m2
15:30 36.7 °F /  2.6 °C 22.5 °F /  -5.3 °C 30.33in /  1027hPa West 2.0mph /  3.2km/h 2.0mph /  3.2km/h 56% 0.00in /  0mm 139 W/m2
15:36 36.9 °F /  2.7 °C 23.1 °F /  -4.9 °C 30.33in /  1027hPa West 2.0mph /  3.2km/h 2.0mph /  3.2km/h 57% 0.00in /  0mm 134 W/m2
15:42 36.9 °F /  2.7 °C 22.7 °F /  -5.2 °C 30.33in /  1027hPa SW 2.0mph /  3.2km/h 3.0mph /  4.8km/h 56% 0.00in /  0mm 141 W/m2
15:48 36.9 °F /  2.7 °C 22.7 °F /  -5.2 °C 30.33in /  1027hPa SW 2.0mph /  3.2km/h 4.0mph /  6.4km/h 56% 0.00in /  0mm 107 W/m2
15:54 36.9 °F /  2.7 °C 22.2 °F /  -5.4 °C 30.33in /  1027hPa West 2.0mph /  3.2km/h 3.0mph /  4.8km/h 55% 0.00in /  0mm 100 W/m2
16:00 36.9 °F /  2.7 °C 22.7 °F /  -5.2 °C 30.33in /  1027hPa WSW 2.0mph /  3.2km/h 2.0mph /  3.2km/h 56% 0.00in /  0mm 241 W/m2
16:06 37.3 °F /  2.9 °C 23.0 °F /  -5 °C 30.33in /  1027hPa SW 3.0mph /  4.8km/h 4.0mph /  6.4km/h 56% 0.00in /  0mm 250 W/m2
16:12 37.9 °F /  3.3 °C 23.2 °F /  -4.9 °C 30.34in /  1027.3hPa West 2.0mph /  3.2km/h 4.0mph /  6.4km/h 55% 0.00in /  0mm 237 W/m2
16:18 37.6 °F /  3.1 °C 23.3 °F /  -4.8 °C 30.34in /  1027.3hPa WSW 3.0mph /  4.8km/h 4.0mph /  6.4km/h 56% 0.00in /  0mm 178 W/m2
16:24 37.2 °F /  2.9 °C 23.4 °F /  -4.8 °C 30.35in /  1027.7hPa South 3.0mph /  4.8km/h 7.0mph /  11.3km/h 57% 0.00in /  0mm 100 W/m2
16:30 37.0 °F /  2.8 °C 24.0 °F /  -4.4 °C 30.35in /  1027.7hPa West 3.0mph /  4.8km/h 3.0mph /  4.8km/h 59% 0.00in /  0mm 84 W/m2
16:36 36.9 °F /  2.7 °C 23.5 °F /  -4.7 °C 30.35in /  1027.7hPa WNW 3.0mph /  4.8km/h 4.0mph /  6.4km/h 58% 0.00in /  0mm 88 W/m2
16:42 36.6 °F /  2.6 °C 23.2 °F /  -4.9 °C 30.36in /  1028hPa SW 4.0mph /  6.4km/h 5.0mph /  8km/h 58% 0.00in /  0mm 70 W/m2
16:48 36.4 °F /  2.4 °C 23.4 °F /  -4.8 °C 30.36in /  1028hPa WSW 3.0mph /  4.8km/h 5.0mph /  8km/h 59% 0.00in /  0mm 58 W/m2
16:54 36.2 °F /  2.3 °C 23.6 °F /  -4.7 °C 30.36in /  1028hPa SW 2.0mph /  3.2km/h 4.0mph /  6.4km/h 60% 0.00in /  0mm 44 W/m2
17:00 35.8 °F /  2.1 °C 23.3 °F /  -4.8 °C 30.36in /  1028hPa SW 1.0mph /  1.6km/h 1.0mph /  1.6km/h 60% 0.00in /  0mm 32 W/m2
17:06 35.5 °F /  1.9 °C 23.4 °F /  -4.8 °C 30.37in /  1028.3hPa SW 1.0mph /  1.6km/h 3.0mph /  4.8km/h 61% 0.00in /  0mm 23 W/m2
17:12 35.3 °F /  1.8 °C 23.6 °F /  -4.7 °C 30.37in /  1028.3hPa SW 1.0mph /  1.6km/h 2.0mph /  3.2km/h 62% 0.00in /  0mm 19 W/m2
17:18 35.2 °F /  1.8 °C 23.5 °F /  -4.7 °C 30.37in /  1028.3hPa Calm   2.0mph /  3.2km/h 62% 0.00in /  0mm 14 W/m2
17:24 35.1 °F /  1.7 °C 23.4 °F /  -4.8 °C 30.37in /  1028.3hPa Calm   2.0mph /  3.2km/h 62% 0.00in /  0mm 11 W/m2
17:30 35.1 °F /  1.7 °C 23.8 °F /  -4.6 °C 30.38in /  1028.7hPa Calm     63% 0.00in /  0mm 7 W/m2
17:36 35.1 °F /  1.7 °C 23.8 °F /  -4.6 °C 30.38in /  1028.7hPa SW 1.0mph /  1.6km/h 2.0mph /  3.2km/h 63% 0.00in /  0mm 0 W/m2
17:42 35.0 °F /  1.7 °C 23.7 °F /  -4.6 °C 30.38in /  1028.7hPa SW 1.0mph /  1.6km/h 1.0mph /  1.6km/h 63% 0.00in /  0mm 0 W/m2
17:48 35.1 °F /  1.7 °C 23.8 °F /  -4.6 °C 30.38in /  1028.7hPa SW 1.0mph /  1.6km/h 1.0mph /  1.6km/h 63% 0.00in /  0mm 0 W/m2
17:54 35.1 °F /  1.7 °C 23.8 °F /  -4.6 °C 30.40in /  1029.3hPa SW 1.0mph /  1.6km/h 3.0mph /  4.8km/h 63% 0.00in /  0mm 0 W/m2
18:00 35.1 °F /  1.7 °C 23.8 °F /  -4.6 °C 30.40in /  1029.3hPa SW 1.0mph /  1.6km/h 1.0mph /  1.6km/h 63% 0.00in /  0mm 0 W/m2
18:06 35.0 °F /  1.7 °C 23.7 °F /  -4.6 °C 30.40in /  1029.3hPa SW 1.0mph /  1.6km/h 2.0mph /  3.2km/h 63% 0.00in /  0mm 0 W/m2
18:12 34.7 °F /  1.5 °C 23.4 °F /  -4.8 °C 30.41in /  1029.7hPa SW 1.0mph /  1.6km/h 1.0mph /  1.6km/h 63% 0.00in /  0mm 0 W/m2
18:18 34.5 °F /  1.4 °C 23.2 °F /  -4.9 °C 30.41in /  1029.7hPa Calm   1.0mph /  1.6km/h 63% 0.00in /  0mm 0 W/m2
18:24 34.3 °F /  1.3 °C 23.0 °F /  -5 °C 30.41in /  1029.7hPa Calm     63% 0.00in /  0mm 0 W/m2
18:30 33.9 °F /  1.1 °C 22.6 °F /  -5.2 °C 30.41in /  1029.7hPa Calm     63% 0.00in /  0mm 0 W/m2
18:36 33.3 °F /  0.7 °C 22.8 °F /  -5.1 °C 30.41in /  1029.7hPa Calm     65% 0.00in /  0mm 0 W/m2
18:42 32.6 °F /  0.3 °C 22.5 °F /  -5.3 °C 30.41in /  1029.7hPa Calm     66% 0.00in /  0mm 0 W/m2
18:48 31.6 °F /  -0.2 °C 22.2 °F /  -5.4 °C 30.42in /  1030hPa Calm     68% 0.00in /  0mm 0 W/m2
18:54 31.2 °F /  -0.4 °C 22.2 °F /  -5.4 °C 30.41in /  1029.7hPa Calm     69% 0.00in /  0mm 0 W/m2
19:00 30.4 °F /  -0.9 °C 21.8 °F /  -5.7 °C 30.42in /  1030hPa Calm     70% 0.00in /  0mm 0 W/m2
19:06 29.9 °F /  -1.2 °C 21.6 °F /  -5.8 °C 30.42in /  1030hPa Calm     71% 0.00in /  0mm 0 W/m2
19:12 29.3 °F /  -1.5 °C 21.4 °F /  -5.9 °C 30.42in /  1030hPa Calm     72% 0.00in /  0mm 0 W/m2
19:18 29.0 °F /  -1.7 °C 21.4 °F /  -5.9 °C 30.42in /  1030hPa Calm     73% 0.00in /  0mm 0 W/m2
19:24 28.7 °F /  -1.8 °C 21.1 °F /  -6.1 °C 30.42in /  1030hPa Calm     73% 0.00in /  0mm 0 W/m2
19:30 28.4 °F /  -2 °C 21.2 °F /  -6 °C 30.42in /  1030hPa Calm     74% 0.00in /  0mm 0 W/m2
19:36 28.2 °F /  -2.1 °C 21.3 °F /  -5.9 °C 30.42in /  1030hPa Calm     75% 0.00in /  0mm 0 W/m2
19:42 28.0 °F /  -2.2 °C 21.4 °F /  -5.9 °C 30.41in /  1029.7hPa Calm     76% 0.00in /  0mm 0 W/m2
19:48 27.7 °F /  -2.4 °C 21.1 °F /  -6.1 °C 30.41in /  1029.7hPa Calm     76% 0.00in /  0mm 0 W/m2
19:56 27.5 °F /  -2.5 °C 21.2 °F /  -6 °C 30.41in /  1029.7hPa Calm     77% 0.00in /  0mm 0 W/m2
20:02 27.2 °F /  -2.7 °C 21.2 °F /  -6 °C 30.41in /  1029.7hPa Calm     78% 0.00in /  0mm 0 W/m2
20:08 26.9 °F /  -2.8 °C 21.0 °F /  -6.1 °C 30.40in /  1029.3hPa Calm     78% 0.00in /  0mm 0 W/m2
20:14 26.7 °F /  -2.9 °C 21.1 °F /  -6.1 °C 30.40in /  1029.3hPa Calm     79% 0.00in /  0mm 0 W/m2
20:20 26.5 °F /  -3.1 °C 21.2 °F /  -6 °C 30.40in /  1029.3hPa Calm     80% 0.00in /  0mm 0 W/m2
20:26 26.3 °F /  -3.2 °C 21.0 °F /  -6.1 °C 30.40in /  1029.3hPa Calm     80% 0.00in /  0mm 0 W/m2
20:32 26.2 °F /  -3.2 °C 21.2 °F /  -6 °C 30.40in /  1029.3hPa Calm     81% 0.00in /  0mm 0 W/m2
20:38 26.1 °F /  -3.3 °C 21.1 °F /  -6.1 °C 30.40in /  1029.3hPa Calm     81% 0.00in /  0mm 0 W/m2
20:44 26.0 °F /  -3.3 °C 21.0 °F /  -6.1 °C 30.40in /  1029.3hPa Calm     81% 0.00in /  0mm 0 W/m2
20:50 25.9 °F /  -3.4 °C 21.2 °F /  -6 °C 30.40in /  1029.3hPa Calm     82% 0.00in /  0mm 0 W/m2
20:56 25.9 °F /  -3.4 °C 21.2 °F /  -6 °C 30.40in /  1029.3hPa Calm     82% 0.00in /  0mm 0 W/m2
21:02 25.8 °F /  -3.4 °C 21.1 °F /  -6.1 °C 30.40in /  1029.3hPa Calm     82% 0.00in /  0mm 0 W/m2
21:08 25.8 °F /  -3.4 °C 21.1 °F /  -6.1 °C 30.40in /  1029.3hPa Calm     82% 0.00in /  0mm 0 W/m2
21:14 25.8 °F /  -3.4 °C 21.1 °F /  -6.1 °C 30.39in /  1029hPa Calm     82% 0.00in /  0mm 0 W/m2
21:20 26.0 °F /  -3.3 °C 21.5 °F /  -5.8 °C 30.39in /  1029hPa Calm     83% 0.00in /  0mm 0 W/m2
21:26 26.1 °F /  -3.3 °C 21.4 °F /  -5.9 °C 30.38in /  1028.7hPa SW 1.0mph /  1.6km/h 1.0mph /  1.6km/h 82% 0.00in /  0mm 0 W/m2
21:32 27.0 °F /  -2.8 °C 22.2 °F /  -5.4 °C 30.38in /  1028.7hPa SSE 1.0mph /  1.6km/h 2.0mph /  3.2km/h 82% 0.00in /  0mm 0 W/m2
21:38 27.8 °F /  -2.3 °C 22.4 °F /  -5.3 °C 30.38in /  1028.7hPa SSE 2.0mph /  3.2km/h 4.0mph /  6.4km/h 80% 0.00in /  0mm 0 W/m2
21:44 28.2 °F /  -2.1 °C 22.5 °F /  -5.3 °C 30.38in /  1028.7hPa SSE 2.0mph /  3.2km/h 4.0mph /  6.4km/h 79% 0.00in /  0mm 0 W/m2
21:50 28.6 °F /  -1.9 °C 22.3 °F /  -5.4 °C 30.38in /  1028.7hPa SSE 2.0mph /  3.2km/h 3.0mph /  4.8km/h 77% 0.00in /  0mm 0 W/m2
21:56 29.0 °F /  -1.7 °C 22.1 °F /  -5.5 °C 30.38in /  1028.7hPa SE 2.0mph /  3.2km/h 3.0mph /  4.8km/h 75% 0.00in /  0mm 0 W/m2
22:02 29.0 °F /  -1.7 °C 21.7 °F /  -5.7 °C 30.38in /  1028.7hPa SE 1.0mph /  1.6km/h 2.0mph /  3.2km/h 74% 0.00in /  0mm 0 W/m2
22:08 29.1 °F /  -1.6 °C 21.8 °F /  -5.7 °C 30.38in /  1028.7hPa SSE 2.0mph /  3.2km/h 3.0mph /  4.8km/h 74% 0.00in /  0mm 0 W/m2
22:14 29.2 °F /  -1.6 °C 21.6 °F /  -5.8 °C 30.37in /  1028.3hPa SSE 2.0mph /  3.2km/h 3.0mph /  4.8km/h 73% 0.00in /  0mm 0 W/m2
22:20 29.3 °F /  -1.5 °C 21.7 °F /  -5.7 °C 30.37in /  1028.3hPa SE 2.0mph /  3.2km/h 3.0mph /  4.8km/h 73% 0.00in /  0mm 0 W/m2
22:26 29.2 °F /  -1.6 °C 21.3 °F /  -5.9 °C 30.37in /  1028.3hPa SE 2.0mph /  3.2km/h 3.0mph /  4.8km/h 72% 0.00in /  0mm 0 W/m2
22:32 29.1 °F /  -1.6 °C 21.2 °F /  -6 °C 30.37in /  1028.3hPa SSE 1.0mph /  1.6km/h 3.0mph /  4.8km/h 72% 0.00in /  0mm 0 W/m2
22:38 29.0 °F /  -1.7 °C 21.1 °F /  -6.1 °C 30.37in /  1028.3hPa SSE 1.0mph /  1.6km/h 3.0mph /  4.8km/h 72% 0.00in /  0mm 0 W/m2
22:44 28.8 °F /  -1.8 °C 21.2 °F /  -6 °C 30.37in /  1028.3hPa SSE 1.0mph /  1.6km/h 1.0mph /  1.6km/h 73% 0.00in /  0mm 0 W/m2
22:50 28.2 °F /  -2.1 °C 20.7 °F /  -6.3 °C 30.37in /  1028.3hPa Calm     73% 0.00in /  0mm 0 W/m2
22:56 27.5 °F /  -2.5 °C 20.6 °F /  -6.3 °C 30.36in /  1028hPa Calm   3.0mph /  4.8km/h 75% 0.00in /  0mm 0 W/m2
23:02 27.2 °F /  -2.7 °C 20.6 °F /  -6.3 °C 30.36in /  1028hPa Calm     76% 0.00in /  0mm 0 W/m2
23:08 27.1 °F /  -2.7 °C 20.8 °F /  -6.2 °C 30.35in /  1027.7hPa Calm     77% 0.00in /  0mm 0 W/m2
23:14 27.3 °F /  -2.6 °C 21.0 °F /  -6.1 °C 30.35in /  1027.7hPa ESE 1.0mph /  1.6km/h 1.0mph /  1.6km/h 77% 0.00in /  0mm 0 W/m2
23:20 27.7 °F /  -2.4 °C 21.1 °F /  -6.1 °C 30.34in /  1027.3hPa ESE 1.0mph /  1.6km/h 1.0mph /  1.6km/h 76% 0.00in /  0mm 0 W/m2
23:26 28.1 °F /  -2.2 °C 21.2 °F /  -6 °C 30.35in /  1027.7hPa East 1.0mph /  1.6km/h 1.0mph /  1.6km/h 75% 0.00in /  0mm 0 W/m2
23:32 28.2 °F /  -2.1 °C 21.0 °F /  -6.1 °C 30.34in /  1027.3hPa East 1.0mph /  1.6km/h 1.0mph /  1.6km/h 74% 0.00in /  0mm 0 W/m2
23:38 28.2 °F /  -2.1 °C 21.0 °F /  -6.1 °C 30.34in /  1027.3hPa ESE 1.0mph /  1.6km/h 4.0mph /  6.4km/h 74% 0.00in /  0mm 0 W/m2
23:44 28.4 °F /  -2 °C 21.2 °F /  -6 °C 30.33in /  1027hPa ESE 1.0mph /  1.6km/h 2.0mph /  3.2km/h 74% 0.00in /  0mm 0 W/m2
23:50 28.5 °F /  -1.9 °C 21.3 °F /  -5.9 °C 30.33in /  1027hPa SE 2.0mph /  3.2km/h 2.0mph /  3.2km/h 74% 0.00in /  0mm 0 W/m2
23:56 28.7 °F /  -1.8 °C 21.1 °F /  -6.1 °C 30.33in /  1027hPa East 2.0mph /  3.2km/h 2.0mph /  3.2km/h 73% 0.00in /  0mm 0 W/m2
Country Meadow, Clay, NY, USA
Compliments of Weather Underground - 2 mb